createdAt,value
2017-09-10T00:01:41.615Z,54.40
2017-09-10T00:04:09.246Z,53.90
2017-09-10T00:06:36.847Z,53.80
2017-09-10T00:09:04.495Z,54.00
2017-09-10T00:11:32.118Z,54.10
2017-09-10T00:14:00.042Z,54.20
2017-09-10T00:16:27.614Z,54.10
2017-09-10T00:18:55.235Z,54.10
2017-09-10T00:21:22.826Z,54.40
2017-09-10T00:23:50.422Z,54.20
2017-09-10T00:26:18.050Z,54.70
2017-09-10T00:28:45.638Z,54.10
2017-09-10T00:31:13.269Z,53.50
2017-09-10T00:33:41.674Z,53.80
2017-09-10T00:36:09.271Z,53.70
2017-09-10T00:38:36.850Z,54.20
2017-09-10T00:41:04.597Z,54.10
2017-09-10T00:43:32.187Z,54.20
2017-09-10T00:45:59.812Z,53.80
2017-09-10T00:48:27.423Z,53.70
2017-09-10T00:50:55.027Z,53.90
2017-09-10T00:53:22.686Z,53.70
2017-09-10T00:55:50.341Z,53.90
2017-09-10T00:58:17.963Z,54.30
2017-09-10T01:00:45.534Z,54.10
2017-09-10T01:03:13.186Z,54.10
2017-09-10T01:05:40.794Z,54.60
2017-09-10T01:08:08.400Z,54.00
2017-09-10T01:10:36.043Z,54.40
2017-09-10T01:13:03.642Z,54.10
2017-09-10T01:15:31.251Z,54.50
2017-09-10T01:17:58.861Z,54.30
2017-09-10T01:20:26.493Z,54.20
2017-09-10T01:22:54.162Z,54.10
2017-09-10T01:25:21.864Z,54.10
2017-09-10T01:27:49.468Z,53.90
2017-09-10T01:30:17.042Z,54.00
2017-09-10T01:32:44.674Z,54.10
2017-09-10T01:35:12.272Z,54.00
2017-09-10T01:37:39.838Z,54.00
2017-09-10T01:40:07.430Z,54.60
2017-09-10T01:42:34.998Z,53.90
2017-09-10T01:45:02.559Z,53.90
2017-09-10T01:47:30.170Z,54.00
2017-09-10T01:49:57.734Z,53.70
2017-09-10T01:52:25.306Z,54.00
2017-09-10T01:54:52.926Z,54.10
2017-09-10T01:57:20.493Z,54.10
2017-09-10T01:59:48.088Z,53.90
2017-09-10T02:02:15.689Z,53.90
2017-09-10T02:04:43.286Z,53.90
2017-09-10T02:07:10.858Z,53.90
2017-09-10T02:09:38.458Z,53.90
2017-09-10T02:12:06.024Z,53.90
2017-09-10T02:14:33.590Z,53.60
2017-09-10T02:17:01.182Z,53.80
2017-09-10T02:19:29.519Z,53.80
2017-09-10T02:21:57.081Z,53.80
2017-09-10T02:24:24.714Z,53.80
2017-09-10T02:26:52.311Z,53.90
2017-09-10T02:29:19.907Z,53.90
2017-09-10T02:31:47.524Z,53.80
2017-09-10T02:34:15.126Z,53.80
2017-09-10T02:36:42.703Z,54.20
2017-09-10T02:39:10.310Z,53.70
2017-09-10T02:41:37.906Z,53.80
2017-09-10T02:44:05.506Z,53.80
2017-09-10T02:46:33.105Z,53.80
2017-09-10T02:49:00.703Z,53.90
2017-09-10T02:51:28.315Z,53.80
2017-09-10T02:54:05.572Z,53.50
2017-09-10T02:56:41.316Z,53.60
2017-09-10T02:59:23.260Z,53.80
2017-09-10T03:01:51.195Z,53.80
2017-09-10T03:04:18.762Z,53.70
2017-09-10T03:06:46.881Z,53.90
2017-09-10T03:09:14.478Z,53.70
2017-09-10T03:11:42.987Z,53.90
2017-09-10T03:14:10.770Z,53.60
2017-09-10T03:16:38.978Z,53.50
2017-09-10T03:19:07.306Z,53.60
2017-09-10T03:21:34.902Z,53.60
2017-09-10T03:24:02.499Z,53.60
2017-09-10T03:26:30.826Z,54.30
2017-09-10T03:28:58.446Z,53.80
2017-09-10T03:31:26.023Z,53.80
2017-09-10T03:33:53.587Z,53.80
2017-09-10T03:36:21.218Z,53.60
2017-09-10T03:38:48.790Z,53.50
2017-09-10T03:41:16.378Z,53.60
2017-09-10T03:43:44.006Z,53.60
2017-09-10T03:46:11.605Z,53.60
2017-09-10T03:48:39.202Z,53.60
2017-09-10T03:51:06.891Z,53.90
2017-09-10T03:53:34.462Z,53.60
2017-09-10T03:56:02.038Z,53.50
2017-09-10T03:58:29.654Z,53.60
2017-09-10T04:00:57.254Z,53.90
2017-09-10T04:03:24.996Z,53.60
2017-09-10T04:05:52.609Z,53.70
2017-09-10T04:08:20.175Z,53.70
2017-09-10T04:10:47.771Z,53.60
2017-09-10T04:13:15.367Z,53.70
2017-09-10T04:15:42.978Z,53.50
2017-09-10T04:18:10.566Z,53.60
2017-09-10T04:20:38.478Z,53.70
2017-09-10T04:23:06.098Z,53.40
2017-09-10T04:25:33.711Z,53.50
2017-09-10T04:28:01.338Z,53.50
2017-09-10T04:30:28.999Z,53.30
2017-09-10T04:32:56.597Z,53.50
2017-09-10T04:35:24.258Z,53.40
2017-09-10T04:37:52.202Z,54.30
2017-09-10T04:40:19.794Z,53.60
2017-09-10T04:42:47.426Z,53.60
2017-09-10T04:45:15.018Z,53.70
2017-09-10T04:47:43.054Z,53.80
2017-09-10T04:50:10.662Z,54.30
2017-09-10T04:52:38.248Z,53.70
2017-09-10T04:55:05.890Z,53.70
2017-09-10T04:57:34.206Z,53.60
2017-09-10T05:00:01.851Z,53.80
2017-09-10T05:02:29.862Z,53.80
2017-09-10T05:04:58.274Z,53.70
2017-09-10T05:07:26.786Z,53.60
2017-09-10T05:09:54.398Z,53.90
2017-09-10T05:12:22.039Z,53.40
2017-09-10T05:14:50.183Z,53.70
2017-09-10T05:17:17.786Z,53.60
2017-09-10T05:19:45.450Z,53.60
2017-09-10T05:22:13.114Z,53.60
2017-09-10T05:24:41.038Z,53.80
2017-09-10T05:27:09.326Z,53.80
2017-09-10T05:29:36.955Z,53.70
2017-09-10T05:32:04.638Z,53.50
2017-09-10T05:34:32.323Z,53.50
2017-09-10T05:36:59.958Z,53.60
2017-09-10T05:39:27.850Z,53.30
2017-09-10T05:41:55.471Z,53.30
2017-09-10T05:44:24.051Z,53.60
2017-09-10T05:46:51.626Z,53.40
2017-09-10T05:49:21.101Z,53.60
2017-09-10T05:51:48.681Z,53.50
2017-09-10T05:54:16.274Z,53.40
2017-09-10T05:56:43.901Z,53.50
2017-09-10T05:59:11.498Z,53.70
2017-09-10T06:01:39.067Z,53.30
2017-09-10T06:04:07.706Z,53.20
2017-09-10T06:06:35.274Z,53.20
2017-09-10T06:09:02.910Z,52.90
2017-09-10T06:11:30.534Z,53.30
2017-09-10T06:13:58.853Z,53.50
2017-09-10T06:16:26.492Z,53.50
2017-09-10T06:18:54.139Z,53.80
2017-09-10T06:21:21.746Z,53.70
2017-09-10T06:23:49.310Z,53.50
2017-09-10T06:26:16.906Z,53.50
2017-09-10T06:28:44.471Z,53.40
2017-09-10T06:31:12.030Z,53.40
2017-09-10T06:33:39.642Z,53.60
2017-09-10T06:36:07.234Z,53.00
2017-09-10T06:38:34.807Z,52.90
2017-09-10T06:41:02.424Z,53.10
2017-09-10T06:43:29.998Z,53.10
2017-09-10T06:45:57.570Z,53.10
2017-09-10T06:48:25.167Z,52.90
2017-09-10T06:50:52.758Z,52.90
2017-09-10T06:53:20.350Z,52.80
2017-09-10T06:55:48.683Z,53.40
2017-09-10T06:58:16.250Z,52.70
2017-09-10T07:00:43.838Z,52.70
2017-09-10T07:03:12.077Z,52.60
2017-09-10T07:05:39.646Z,52.60
2017-09-10T07:08:07.234Z,52.60
2017-09-10T07:10:35.002Z,53.20
2017-09-10T07:13:02.598Z,53.50
2017-09-10T07:15:31.276Z,53.20
2017-09-10T07:17:58.879Z,54.20
2017-09-10T07:20:26.902Z,54.30
2017-09-10T07:22:55.230Z,54.90
2017-09-10T07:25:22.822Z,54.80
2017-09-10T07:27:50.410Z,54.70
2017-09-10T07:30:18.730Z,54.50
2017-09-10T07:32:47.238Z,54.60
2017-09-10T07:35:14.802Z,54.50
2017-09-10T07:37:43.187Z,54.60
2017-09-10T07:40:12.259Z,54.70
2017-09-10T07:42:40.171Z,54.60
2017-09-10T07:45:07.743Z,55.00
2017-09-10T07:47:36.975Z,55.00
2017-09-10T07:50:04.547Z,55.10
2017-09-10T07:52:34.024Z,55.20
2017-09-10T07:55:01.614Z,55.60
2017-09-10T07:57:29.204Z,55.90
2017-09-10T07:59:56.794Z,56.40
2017-09-10T08:02:24.963Z,56.70
2017-09-10T08:04:52.551Z,57.50
2017-09-10T08:07:20.934Z,58.80
2017-09-10T08:09:48.634Z,59.70
2017-09-10T08:12:16.282Z,60.50
2017-09-10T08:14:43.858Z,60.80
2017-09-10T08:17:11.483Z,61.90
2017-09-10T08:19:39.120Z,61.10
2017-09-10T08:22:12.171Z,61.50
2017-09-10T08:24:39.813Z,61.70
2017-09-10T08:27:07.407Z,62.60
2017-09-10T08:29:36.130Z,61.70
2017-09-10T08:32:03.730Z,62.10
2017-09-10T08:34:32.082Z,62.60
2017-09-10T08:36:59.753Z,62.60
2017-09-10T08:39:27.397Z,62.80
2017-09-10T08:41:54.958Z,62.90
2017-09-10T08:44:23.009Z,63.10
2017-09-10T08:46:51.046Z,63.50
2017-09-10T08:49:18.639Z,63.70
2017-09-10T08:51:46.218Z,63.80
2017-09-10T08:54:13.845Z,63.60
2017-09-10T08:56:41.894Z,63.70
2017-09-10T08:59:10.018Z,63.80
2017-09-10T09:01:37.615Z,63.80
2017-09-10T09:04:05.179Z,64.70
2017-09-10T09:06:33.662Z,64.90
2017-09-10T09:09:01.656Z,65.10
2017-09-10T09:11:29.255Z,65.00
2017-09-10T09:13:56.819Z,65.00
2017-09-10T09:16:24.422Z,64.90
2017-09-10T09:18:51.990Z,65.00
2017-09-10T09:21:20.140Z,65.00
2017-09-10T09:23:49.076Z,65.20
2017-09-10T09:26:16.670Z,65.10
2017-09-10T09:28:44.263Z,65.10
2017-09-10T09:31:11.967Z,65.20
2017-09-10T09:33:39.558Z,65.80
2017-09-10T09:36:10.034Z,65.70
2017-09-10T09:38:37.667Z,65.30
2017-09-10T09:41:05.271Z,65.00
2017-09-10T09:43:33.878Z,64.80
2017-09-10T09:46:01.485Z,64.60
2017-09-10T09:48:29.302Z,64.50
2017-09-10T09:50:56.943Z,64.40
2017-09-10T09:53:24.731Z,64.30
2017-09-10T09:55:52.304Z,64.30
2017-09-10T09:58:19.879Z,64.20
2017-09-10T10:00:47.581Z,63.80
2017-09-10T10:03:16.083Z,63.50
2017-09-10T10:05:43.647Z,63.30
2017-09-10T10:08:11.270Z,63.00
2017-09-10T10:10:38.871Z,62.80
2017-09-10T10:13:06.451Z,62.40
2017-09-10T10:15:34.073Z,62.30
2017-09-10T10:18:01.642Z,62.10
2017-09-10T10:20:29.251Z,62.10
2017-09-10T10:22:56.851Z,61.80
2017-09-10T10:25:24.426Z,61.70
2017-09-10T10:27:52.058Z,61.70
2017-09-10T10:30:19.722Z,61.40
2017-09-10T10:32:47.287Z,61.60
2017-09-10T10:35:14.878Z,61.60
2017-09-10T10:37:42.502Z,61.40
2017-09-10T10:40:10.107Z,61.30
2017-09-10T10:42:37.739Z,61.00
2017-09-10T10:45:05.335Z,61.10
2017-09-10T10:47:32.940Z,61.30
2017-09-10T10:50:00.539Z,61.40
2017-09-10T10:52:28.279Z,61.70
2017-09-10T10:54:55.859Z,62.30
2017-09-10T10:57:23.621Z,62.20
2017-09-10T10:59:51.226Z,62.10
2017-09-10T11:02:19.626Z,61.80
2017-09-10T11:04:47.192Z,61.30
2017-09-10T11:07:14.816Z,60.90
2017-09-10T11:09:42.416Z,60.60
2017-09-10T11:12:10.026Z,60.20
2017-09-10T11:14:38.414Z,60.20
2017-09-10T11:17:06.012Z,60.10
2017-09-10T11:19:33.602Z,60.00
2017-09-10T11:22:01.223Z,59.80
2017-09-10T11:24:28.802Z,59.70
2017-09-10T11:26:57.083Z,59.60
2017-09-10T11:29:25.319Z,59.40
2017-09-10T11:31:53.666Z,59.20
2017-09-10T11:34:21.259Z,59.10
2017-09-10T11:36:48.862Z,59.00
2017-09-10T11:39:16.432Z,58.90
2017-09-10T11:41:44.022Z,58.80
2017-09-10T11:44:11.631Z,58.60
2017-09-10T11:46:39.215Z,58.60
2017-09-10T11:49:06.818Z,58.50
2017-09-10T11:51:34.426Z,58.40
2017-09-10T11:54:02.460Z,58.30
2017-09-10T11:56:30.067Z,58.20
2017-09-10T11:58:57.805Z,58.10
2017-09-10T12:01:25.387Z,58.00
2017-09-10T12:03:53.027Z,58.00
2017-09-10T12:06:21.441Z,58.50
2017-09-10T12:08:49.061Z,57.70
2017-09-10T12:11:17.448Z,57.60
2017-09-10T12:13:45.260Z,57.60
2017-09-10T12:16:12.870Z,57.60
2017-09-10T12:18:40.467Z,57.50
2017-09-10T12:21:08.099Z,57.50
2017-09-10T12:23:35.869Z,57.40
2017-09-10T12:26:03.484Z,57.30
2017-09-10T12:28:31.244Z,57.30
2017-09-10T12:30:58.855Z,57.20
2017-09-10T12:33:26.459Z,57.20
2017-09-10T12:35:54.142Z,57.10
2017-09-10T12:38:22.758Z,57.10
2017-09-10T12:40:50.346Z,57.00
2017-09-10T12:43:17.939Z,56.90
2017-09-10T12:45:45.531Z,56.90
2017-09-10T12:48:13.126Z,56.80
2017-09-10T12:50:41.490Z,56.80
2017-09-10T12:53:09.078Z,56.70
2017-09-10T12:55:37.455Z,57.30
2017-09-10T12:58:05.899Z,56.60
2017-09-10T13:00:33.511Z,56.60
2017-09-10T13:03:01.147Z,56.50
2017-09-10T13:05:28.761Z,56.50
2017-09-10T13:07:56.327Z,56.50
2017-09-10T13:10:23.894Z,56.40
2017-09-10T13:12:51.495Z,56.40
2017-09-10T13:15:19.110Z,56.40
2017-09-10T13:17:46.711Z,56.30
2017-09-10T13:20:15.078Z,56.30
2017-09-10T13:22:42.658Z,56.20
2017-09-10T13:25:10.991Z,56.20
2017-09-10T13:27:38.634Z,56.10
2017-09-10T13:30:06.334Z,56.10
2017-09-10T13:32:33.939Z,56.10
2017-09-10T13:35:01.554Z,56.00
2017-09-10T13:37:29.126Z,56.00
2017-09-10T13:39:56.887Z,56.00
2017-09-10T13:42:25.307Z,56.00
2017-09-10T13:44:52.938Z,56.00
2017-09-10T13:47:20.511Z,55.90
2017-09-10T13:49:48.139Z,55.90
2017-09-10T13:52:15.719Z,55.80
2017-09-10T13:54:43.318Z,55.80
2017-09-10T13:57:11.478Z,55.70
2017-09-10T13:59:39.047Z,55.80
2017-09-10T14:02:06.651Z,55.70
2017-09-10T14:04:34.262Z,55.70
2017-09-10T14:07:01.859Z,55.60
2017-09-10T14:09:29.500Z,55.70
2017-09-10T14:11:57.126Z,55.60
2017-09-10T14:14:24.726Z,55.50
2017-09-10T14:16:52.326Z,55.50
2017-09-10T14:19:20.480Z,55.60
2017-09-10T14:21:48.858Z,55.50
2017-09-10T14:24:16.464Z,55.50
2017-09-10T14:26:44.506Z,55.90
2017-09-10T14:29:12.913Z,55.40
2017-09-10T14:31:40.515Z,55.40
2017-09-10T14:34:08.832Z,55.40
2017-09-10T14:36:36.549Z,55.30
2017-09-10T14:39:04.236Z,55.30
2017-09-10T14:41:31.871Z,55.30
2017-09-10T14:43:59.483Z,55.30
2017-09-10T14:46:27.079Z,55.30
2017-09-10T14:48:54.719Z,55.20
2017-09-10T14:51:22.319Z,55.20
2017-09-10T14:53:49.891Z,55.20
2017-09-10T14:56:17.516Z,55.20
2017-09-10T14:58:45.123Z,55.10
2017-09-10T15:01:13.287Z,55.10
2017-09-10T15:03:40.906Z,55.10
2017-09-10T15:06:08.503Z,55.10
2017-09-10T15:08:36.108Z,55.10
2017-09-10T15:11:03.850Z,55.10
2017-09-10T15:13:31.442Z,55.10
2017-09-10T15:15:59.079Z,55.00
2017-09-10T15:18:27.216Z,55.00
2017-09-10T15:20:55.893Z,55.00
2017-09-10T15:23:23.483Z,55.00
2017-09-10T15:25:51.100Z,54.90
2017-09-10T15:28:18.699Z,54.90
2017-09-10T15:30:46.343Z,54.90
2017-09-10T15:33:14.539Z,54.90
2017-09-10T15:35:42.157Z,54.80
2017-09-10T15:38:09.763Z,54.80
2017-09-10T15:40:37.549Z,54.80
2017-09-10T15:43:05.154Z,54.80
2017-09-10T15:45:32.727Z,54.80
2017-09-10T15:48:00.357Z,54.80
2017-09-10T15:50:27.940Z,54.80
2017-09-10T15:52:55.536Z,54.70
2017-09-10T15:55:23.229Z,54.70
2017-09-10T15:57:50.859Z,54.70
2017-09-10T16:00:18.507Z,54.70
2017-09-10T16:02:46.155Z,54.70
2017-09-10T16:05:13.751Z,54.70
2017-09-10T16:07:41.359Z,54.60
2017-09-10T16:10:08.987Z,54.60
2017-09-10T16:12:36.561Z,54.60
2017-09-10T16:15:04.143Z,54.60
2017-09-10T16:17:31.780Z,54.60
2017-09-10T16:19:59.366Z,55.20
2017-09-10T16:22:26.963Z,54.50
2017-09-10T16:24:54.575Z,54.50
2017-09-10T16:27:22.388Z,54.50
2017-09-10T16:29:50.759Z,54.50
2017-09-10T16:32:18.427Z,54.50
2017-09-10T16:34:46.096Z,54.50
2017-09-10T16:37:13.705Z,54.50
2017-09-10T16:39:41.344Z,54.40
2017-09-10T16:42:08.952Z,54.40
2017-09-10T16:44:36.568Z,54.40
2017-09-10T16:47:04.197Z,54.40
2017-09-10T16:49:31.803Z,54.40
2017-09-10T16:51:59.420Z,54.40
2017-09-10T16:54:27.791Z,54.40
2017-09-10T16:56:55.448Z,54.40
2017-09-10T16:59:23.096Z,54.40
2017-09-10T17:01:51.523Z,54.30
2017-09-10T17:04:20.265Z,54.30
2017-09-10T17:06:48.339Z,54.30
2017-09-10T17:09:16.015Z,54.30
2017-09-10T17:11:43.677Z,54.30
2017-09-10T17:14:11.287Z,54.30
2017-09-10T17:16:38.932Z,54.30
2017-09-10T17:19:06.579Z,54.30
2017-09-10T17:21:34.219Z,54.30
2017-09-10T17:24:01.855Z,54.30
2017-09-10T17:26:29.477Z,54.30
2017-09-10T17:28:57.087Z,54.20
2017-09-10T17:31:25.267Z,54.90
2017-09-10T17:33:53.574Z,54.30
2017-09-10T17:36:22.242Z,54.20
2017-09-10T17:38:51.761Z,54.20
2017-09-10T17:41:20.227Z,54.10
2017-09-10T17:43:48.894Z,54.20
2017-09-10T17:46:16.555Z,54.20
2017-09-10T17:48:44.911Z,54.20
2017-09-10T17:51:12.586Z,54.20
2017-09-10T17:53:40.382Z,54.20
2017-09-10T17:56:09.081Z,54.20
2017-09-10T17:58:36.701Z,54.10
2017-09-10T18:01:05.941Z,54.20
2017-09-10T18:03:34.773Z,54.20
2017-09-10T18:06:02.760Z,54.20
2017-09-10T18:08:31.392Z,54.20
2017-09-10T18:10:59.010Z,54.20
2017-09-10T18:13:26.664Z,54.20
2017-09-10T18:15:54.290Z,54.10
2017-09-10T18:18:21.987Z,54.20
2017-09-10T18:20:49.649Z,54.20
2017-09-10T18:23:17.330Z,54.20
2017-09-10T18:25:44.975Z,54.10
2017-09-10T18:28:12.907Z,54.20
2017-09-10T18:30:41.574Z,54.00
2017-09-10T18:33:09.276Z,54.20
2017-09-10T18:35:37.366Z,54.20
2017-09-10T18:38:05.000Z,54.20
2017-09-10T18:40:33.280Z,54.20
2017-09-10T18:43:00.886Z,54.10
2017-09-10T18:45:30.447Z,54.20
2017-09-10T18:47:58.014Z,54.30
2017-09-10T18:50:25.691Z,54.30
2017-09-10T18:52:53.338Z,54.40
2017-09-10T18:55:20.959Z,54.40
2017-09-10T18:57:48.661Z,54.40
2017-09-10T19:00:16.275Z,54.40
2017-09-10T19:02:43.859Z,54.40
2017-09-10T19:05:11.484Z,54.40
2017-09-10T19:07:41.860Z,54.60
2017-09-10T19:10:32.739Z,54.50
2017-09-10T19:13:00.438Z,54.60
2017-09-10T19:15:28.239Z,54.60
2017-09-10T19:17:55.844Z,54.70
2017-09-10T19:20:23.484Z,54.70
2017-09-10T19:22:51.087Z,54.80
2017-09-10T19:25:18.687Z,54.80
2017-09-10T19:27:47.219Z,54.80
2017-09-10T19:30:14.841Z,54.80
2017-09-10T19:32:42.416Z,54.80
2017-09-10T19:35:10.615Z,54.80
2017-09-10T19:37:38.212Z,54.80
2017-09-10T19:40:06.555Z,54.80
2017-09-10T19:42:34.414Z,54.80
2017-09-10T19:45:02.025Z,54.80
2017-09-10T19:47:30.344Z,54.80
2017-09-10T19:49:58.023Z,54.70
2017-09-10T19:52:25.637Z,54.70
2017-09-10T19:54:53.253Z,54.70
2017-09-10T19:57:20.900Z,54.70
2017-09-10T19:59:48.479Z,54.70
2017-09-10T20:02:16.083Z,54.70
2017-09-10T20:04:44.027Z,54.70
2017-09-10T20:07:11.606Z,54.70
2017-09-10T20:09:39.176Z,54.70
2017-09-10T20:12:07.423Z,54.60
2017-09-10T20:14:35.028Z,54.60
2017-09-10T20:17:02.604Z,54.60
2017-09-10T20:19:31.020Z,54.60
2017-09-10T20:21:58.669Z,54.60
2017-09-10T20:24:26.994Z,54.60
2017-09-10T20:26:54.622Z,54.60
2017-09-10T20:29:22.866Z,54.60
2017-09-10T20:31:50.470Z,54.60
2017-09-10T20:34:19.674Z,54.50
2017-09-10T20:36:47.275Z,54.50
2017-09-10T20:39:16.700Z,54.40
2017-09-10T20:41:44.343Z,54.50
2017-09-10T20:44:11.955Z,54.50
2017-09-10T20:46:39.553Z,54.30
2017-09-10T20:49:07.166Z,54.40
2017-09-10T20:51:34.755Z,55.00
2017-09-10T20:54:02.327Z,54.40
2017-09-10T20:56:29.946Z,54.40
2017-09-10T20:58:57.582Z,54.30
2017-09-10T21:01:25.186Z,54.60
2017-09-10T21:03:52.791Z,55.30
2017-09-10T21:06:21.063Z,55.40
2017-09-10T21:08:48.667Z,55.90
2017-09-10T21:11:16.276Z,56.40
2017-09-10T21:13:43.870Z,56.40
2017-09-10T21:16:16.715Z,56.50
2017-09-10T21:18:44.290Z,56.70
2017-09-10T21:21:12.055Z,58.10
2017-09-10T21:23:39.667Z,58.10
2017-09-10T21:26:07.312Z,58.30
2017-09-10T21:31:20.635Z,58.70
2017-09-10T21:33:48.214Z,59.20
2017-09-10T21:36:15.872Z,59.20
2017-09-10T21:38:43.491Z,59.20
2017-09-10T21:41:11.067Z,59.40
2017-09-10T21:43:39.123Z,59.20
2017-09-10T21:46:08.299Z,59.20
2017-09-10T21:48:35.895Z,59.30
2017-09-10T21:51:03.580Z,59.30
2017-09-10T21:53:32.087Z,59.30
2017-09-10T21:56:00.409Z,59.10
2017-09-10T21:58:28.827Z,59.30
2017-09-10T22:00:56.799Z,59.30
2017-09-10T22:03:25.185Z,59.20
2017-09-10T22:05:53.526Z,59.50
2017-09-10T22:08:21.135Z,59.40
2017-09-10T22:10:49.052Z,59.30
2017-09-10T22:13:16.634Z,59.40
2017-09-10T22:15:44.270Z,59.50
2017-09-10T22:18:11.855Z,59.70
2017-09-10T22:20:39.905Z,59.60
2017-09-10T22:23:07.542Z,59.80
2017-09-10T22:25:35.115Z,59.90
2017-09-10T22:28:02.710Z,59.90
2017-09-10T22:30:30.307Z,59.90
2017-09-10T22:32:57.903Z,60.00
2017-09-10T22:35:26.199Z,60.00
2017-09-10T22:37:53.835Z,60.00
2017-09-10T22:40:21.407Z,60.10
2017-09-10T22:42:49.010Z,60.10
2017-09-10T22:45:16.638Z,60.10
2017-09-10T22:47:44.206Z,60.10
2017-09-10T22:50:11.821Z,60.20
2017-09-10T22:52:39.438Z,60.20
2017-09-10T22:55:07.844Z,60.20
2017-09-10T22:57:35.411Z,60.20
2017-09-10T23:00:03.111Z,60.20
2017-09-10T23:02:30.690Z,60.10
2017-09-10T23:04:58.259Z,60.30
2017-09-10T23:07:25.878Z,60.40
2017-09-10T23:09:53.455Z,60.30
2017-09-10T23:12:21.048Z,60.30
2017-09-10T23:14:48.646Z,60.40
2017-09-10T23:17:16.237Z,60.40
2017-09-10T23:19:43.806Z,60.30
2017-09-10T23:22:11.496Z,60.40
2017-09-10T23:27:11.982Z,60.40
2017-09-10T23:29:40.422Z,60.40
2017-09-10T23:32:09.957Z,60.30
2017-09-10T23:34:41.154Z,60.30
2017-09-10T23:37:08.746Z,60.30
2017-09-10T23:39:36.322Z,60.40
2017-09-10T23:42:03.882Z,60.30
2017-09-10T23:44:31.482Z,60.40
2017-09-10T23:46:59.055Z,60.30
2017-09-10T23:49:26.627Z,60.40
2017-09-10T23:51:54.243Z,60.60
2017-09-10T23:54:22.723Z,60.40
2017-09-10T23:56:50.296Z,60.40
2017-09-10T23:59:17.946Z,60.50
